Terminal Aerodrome Forecast
Issued by NWS Detroit/Pontiac, MI

Home | Current Version | Previous Version | Text Only | Print | Product List | Glossary On
Versions: 1 2 3 4 5 6 7 8 9 10 11 12 13 14
000
FTUS43 KDTX 050523
TAFFNT
TAF
KFNT 050523Z 0506/0606 06008KT P6SM SCT080 BKN250
     FM051200 08006KT P6SM BKN050 OVC100
     FM051600 09010KT 5SM SHRA OVC040
     FM052200 11007KT 4SM -SHRA BR OVC022
     FM060200 12006KT 3SM BR OVC012=

USA.gov is the U.S. government's official web portal to all federal, state and local government web resources and services.